Gouwestroom — PDGR — position and weather

sailwx.info

Track history (hours):
 
Tides and Currents Weather Stations Pressure Air Temp Water Temp Dewpoint Dewpoint Depression Visibility Wind Speed Wind Dir Waves Ship Positions

Gouwestroom

Last reported at 2015-Jul-30 07:31 UTC. Time now 2015-Jul-30 08:15 UTC.
Position N 54°09' E 012°06'.

Length 20 m; draft 2.5 m.

Type: Tug. MMSI: 246166000.

Date/timePositionNaut miles runAvg speedWind from/ knotsBaromVisibWave heightAir tempDewpointWater temp
2015-Jul-30 07:31N 54°09' E 012°06'0 0.0
2015-Jul-30 06:31N 54°09' E 012°06'0 0.0
2015-Jul-30 05:31N 54°09' E 012°06'0 0.0
2015-Jul-30 04:31N 54°09' E 012°06'0 0.0
2015-Jul-30 03:19N 54°09' E 012°06'0 0.0
2015-Jul-30 02:25N 54°09' E 012°06'0 0.0
2015-Jul-30 01:10N 54°09' E 012°06'0 0.0
2015-Jul-30 00:31N 54°09' E 012°06'0 0.0
2015-Jul-29 23:10N 54°09' E 012°06'0 0.0
2015-Jul-29 22:31N 54°09' E 012°06'0 0.0
2015-Jul-29 21:28N 54°09' E 012°06'0 0.0
2015-Jul-29 20:10N 54°09' E 012°06'0 0.0
2015-Jul-29 17:31N 54°09' E 012°06'0 0.0
2015-Jul-29 16:22N 54°09' E 012°06'0 0.0
2015-Jul-29 15:19N 54°09' E 012°06'0 0.0
2015-Jul-29 14:25N 54°09' E 012°06'0 0.0
2015-Jul-29 13:25N 54°09' E 012°06'0 0.0
2015-Jul-29 12:31N 54°09' E 012°06'0 0.0
2015-Jul-29 11:25N 54°09' E 012°06'0 0.0
2015-Jul-29 09:31N 54°09' E 012°06'0 0.0
2015-Jul-29 08:28N 54°09' E 012°06'0 0.0
2015-Jul-29 07:13N 54°09' E 012°06'0 0.0
2015-Jul-29 06:31N 54°09' E 012°06'0 0.0
2015-Jul-29 05:13N 54°09' E 012°06'0 0.0
2015-Jul-29 04:07N 54°09' E 012°06'0 0.0
2015-Jul-29 03:31N 54°09' E 012°06'0 0.0
2015-Jul-29 02:28N 54°09' E 012°06'0 0.0
2015-Jul-29 00:31N 54°09' E 012°06'0 0.0
2015-Jul-28 23:31N 54°09' E 012°06'0 0.0
2015-Jul-28 21:31N 54°09' E 012°06'0 0.0
2015-Jul-28 20:22N 54°09' E 012°06'0 0.0
2015-Jul-28 18:25N 54°09' E 012°06'0 0.0
2015-Jul-28 17:31N 54°09' E 012°06'0 0.0
2015-Jul-28 14:22N 54°09' E 012°06'0 0.0
2015-Jul-28 13:10N 54°09' E 012°06'0 0.0
2015-Jul-28 12:10N 54°09' E 012°06'0 0.0
2015-Jul-28 11:31N 54°09' E 012°06'0 0.0
2015-Jul-28 10:28N 54°09' E 012°06'0 0.0
2015-Jul-28 09:31N 54°09' E 012°06'0 0.0
2015-Jul-28 08:16N 54°09' E 012°06'0 0.0
2015-Jul-28 07:31N 54°09' E 012°06'0 0.0
2015-Jul-28 06:22N 54°09' E 012°06'0 0.0
2015-Jul-28 05:27N 54°09' E 012°07'0 0.4
2015-Jul-28 04:31N 54°10' E 012°06'3 2.8
2015-Jul-28 03:29N 54°12' E 012°06'3 3.1
2015-Jul-28 02:27N 54°15' E 012°10'0 0.0
2015-Jul-28 00:09N 54°15' E 012°10'0 0.0
2015-Jul-27 23:27N 54°15' E 012°10'0 0.0
2015-Jul-27 22:33N 54°15' E 012°10'0 0.0
2015-Jul-27 21:33N 54°15' E 012°10'0 0.0
2015-Jul-27 19:30N 54°15' E 012°10'0 0.0
2015-Jul-27 17:21N 54°15' E 012°10'0 0.0
2015-Jul-27 16:33N 54°15' E 012°10'0 0.0
2015-Jul-27 15:32N 54°15' E 012°10'0 0.0
2015-Jul-27 14:32N 54°15' E 012°10'0 0.0
2015-Jul-27 13:32N 54°15' E 012°10'0 0.0
2015-Jul-27 12:32N 54°15' E 012°10'0 0.0
2015-Jul-27 11:32N 54°15' E 012°10'0 0.0
2015-Jul-27 10:32N 54°15' E 012°10'1 0.4
2015-Jul-27 08:14N 54°15' E 012°09'2 3.1
2015-Jul-27 07:32N 54°13' E 012°07'3 2.7
2015-Jul-27 06:33N 54°10' E 012°06'1 1.4
2015-Jul-27 05:32N 54°09' E 012°07'0 0.0
2015-Jul-27 03:26N 54°09' E 012°07'0 0.0
2015-Jul-27 02:26N 54°09' E 012°07'0 0.0
2015-Jul-27 01:29N 54°09' E 012°07'0 0.0
2015-Jul-27 00:29N 54°09' E 012°07'0 0.0
2015-Jul-26 23:29N 54°09' E 012°07'0 0.0
2015-Jul-26 22:29N 54°09' E 012°07'2 2.6
2015-Jul-26 21:34N 54°11' E 012°05'2 2.2
2015-Jul-26 20:29N 54°09' E 012°06'0 0.0
2015-Jul-26 19:20N 54°09' E 012°06'0 0.0
2015-Jul-26 18:32N 54°09' E 012°07'0 0.0
2015-Jul-26 17:05N 54°09' E 012°06'0 0.0
2015-Jul-26 16:29N 54°09' E 012°06'0 0.0
2015-Jul-26 14:32N 54°09' E 012°06'0 0.0
2015-Jul-26 13:29N 54°09' E 012°06'0 0.0
2015-Jul-26 12:29N 54°09' E 012°06'0 0.0
2015-Jul-26 11:32N 54°09' E 012°06'0 0.0
2015-Jul-26 10:14N 54°09' E 012°06'0 0.0
2015-Jul-26 09:17N 54°09' E 012°06'0 0.0
2015-Jul-26 08:17N 54°09' E 012°07'0 0.0
2015-Jul-26 07:05N 54°09' E 012°06'0 0.0
2015-Jul-26 06:23N 54°09' E 012°06'0 0.0
2015-Jul-26 05:29N 54°09' E 012°06'0 0.0
2015-Jul-26 04:26N 54°09' E 012°06'0 0.0
2015-Jul-26 03:20N 54°09' E 012°06'0 0.0
2015-Jul-26 02:32N 54°09' E 012°06'0 0.0
2015-Jul-26 01:08N 54°09' E 012°06'0 0.0
2015-Jul-25 23:26N 54°09' E 012°06'0 0.0
2015-Jul-25 22:29N 54°09' E 012°06'0 0.0
2015-Jul-25 21:32N 54°09' E 012°06'0 0.0
2015-Jul-25 20:29N 54°09' E 012°06'0 0.0
2015-Jul-25 18:29N 54°09' E 012°06'0 0.0
2015-Jul-25 17:32N 54°09' E 012°06'0 0.0
2015-Jul-25 16:05N 54°09' E 012°06'0 0.0
2015-Jul-25 15:29N 54°09' E 012°06'0 0.0
2015-Jul-25 14:32N 54°09' E 012°06'0 0.0
2015-Jul-25 13:20N 54°09' E 012°06'0 0.0
2015-Jul-25 12:23N 54°09' E 012°06'0 0.0
2015-Jul-25 11:32N 54°09' E 012°06'0 0.0
2015-Jul-25 10:26N 54°09' E 012°06'0 0.0
2015-Jul-25 08:32N 54°09' E 012°06'0 0.0
2015-Jul-25 07:26N 54°09' E 012°06'0 0.0
2015-Jul-25 06:32N 54°09' E 012°07'0 0.0
2015-Jul-25 04:17N 54°09' E 012°06'0 0.0
2015-Jul-25 01:08N 54°09' E 012°07'0 0.0
2015-Jul-25 00:08N 54°09' E 012°06'0 0.0
2015-Jul-24 23:32N 54°09' E 012°06'0 0.0
2015-Jul-24 22:14N 54°09' E 012°07'0 0.0
2015-Jul-24 21:32N 54°09' E 012°06'0 0.0
2015-Jul-24 20:32N 54°09' E 012°07'3 2.6
2015-Jul-24 19:34N 54°12' E 012°05'2 1.7
2015-Jul-24 18:32N 54°12' E 012°08'0 0.0
2015-Jul-24 17:32N 54°12' E 012°08'0 0.0
2015-Jul-24 16:30N 54°12' E 012°08'0 0.0
2015-Jul-24 15:33N 54°12' E 012°08'0 0.0
2015-Jul-24 14:33N 54°12' E 012°08'0 0.1
2015-Jul-24 13:27N 54°13' E 012°08'0 0.0
2015-Jul-24 12:33N 54°13' E 012°08'0 0.0
2015-Jul-24 11:27N 54°12' E 012°08'0 0.0
2015-Jul-24 10:27N 54°12' E 012°08'0 0.0
2015-Jul-24 09:15N 54°12' E 012°08'0 0.0
2015-Jul-24 08:27N 54°12' E 012°08'0 0.0
2015-Jul-24 07:33N 54°12' E 012°08'0 0.0
2015-Jul-24 06:33N 54°12' E 012°08'0 0.0
2015-Jul-24 05:21N 54°12' E 012°08'0 0.0
2015-Jul-24 04:14N 54°12' E 012°08'0 0.0
2015-Jul-24 03:17N 54°12' E 012°08'0 0.2
2015-Jul-24 01:32N 54°13' E 012°08'2 2.4
2015-Jul-24 00:33N 54°11' E 012°06'2 1.9
2015-Jul-23 23:32N 54°09' E 012°07'0 0.1
2015-Jul-23 22:32N 54°09' E 012°06'0 0.0
2015-Jul-23 20:32N 54°09' E 012°06'0 0.0
2015-Jul-23 19:29N 54°09' E 012°07'1 1.0
2015-Jul-23 18:33N 54°10' E 012°06'1 0.8
2015-Jul-23 17:25N 54°09' E 012°06'0 0.0
2015-Jul-23 16:28N 54°09' E 012°07'0 0.0
2015-Jul-23 15:31N 54°09' E 012°06'0 0.0
2015-Jul-23 14:18N 54°09' E 012°07'0 0.0
2015-Jul-23 13:30N 54°09' E 012°07'0 0.0
2015-Jul-23 12:24N 54°09' E 012°06'0 0.0
2015-Jul-23 11:30N 54°09' E 012°06'0 0.0
2015-Jul-23 10:33N 54°09' E 012°06'0 0.0
2015-Jul-23 09:27N 54°09' E 012°06'0 0.0
2015-Jul-23 08:18N 54°09' E 012°07'0 0.0
2015-Jul-23 07:15N 54°09' E 012°06'0 0.0
2015-Jul-23 06:30N 54°09' E 012°06'0 0.0
2015-Jul-23 05:24N 54°09' E 012°06'0 0.0
2015-Jul-23 04:33N 54°09' E 012°06'0 0.0
2015-Jul-23 03:12N 54°09' E 012°06'0 0.0
2015-Jul-23 02:15N 54°09' E 012°07'0 0.0
2015-Jul-23 01:33N 54°09' E 012°06'0 0.0
2015-Jul-23 00:32N 54°09' E 012°07'2 2.1
2015-Jul-22 23:32N 54°11' E 012°05'2 2.1
2015-Jul-22 22:29N 54°13' E 012°08'0 0.0
2015-Jul-22 20:32N 54°13' E 012°08'0 0.0
2015-Jul-22 19:29N 54°13' E 012°08'0 0.0
2015-Jul-22 18:29N 54°13' E 012°08'0 0.0
2015-Jul-22 17:29N 54°13' E 012°08'0 0.0
2015-Jul-22 16:25N 54°13' E 012°08'0 0.0
2015-Jul-22 15:22N 54°13' E 012°08'0 0.0
2015-Jul-22 14:28N 54°13' E 012°08'0 0.0
2015-Jul-22 13:10N 54°13' E 012°08'0 0.0
2015-Jul-22 12:28N 54°13' E 012°08'0 0.0
2015-Jul-22 11:25N 54°13' E 012°08'0 0.0
2015-Jul-22 10:31N 54°13' E 012°08'0 0.1
2015-Jul-22 09:31N 54°13' E 012°08'2 2.0
2015-Jul-22 08:27N 54°15' E 012°10'0 0.0
2015-Jul-22 06:33N 54°15' E 012°10'0 0.0
2015-Jul-22 05:33N 54°15' E 012°10'0 0.0
2015-Jul-22 04:31N 54°15' E 012°10'0 0.0
2015-Jul-22 03:28N 54°15' E 012°10'0 0.0
2015-Jul-22 02:28N 54°15' E 012°10'0 0.2
2015-Jul-22 01:30N 54°14' E 012°10'3 2.6
2015-Jul-22 00:31N 54°12' E 012°08'3 2.7
2015-Jul-21 23:33N 54°10' E 012°06'0 0.4
2015-Jul-21 22:25N 54°09' E 012°06'0 0.0
2015-Jul-21 21:28N 54°09' E 012°06'0 0.0
2015-Jul-21 20:31N 54°09' E 012°06'0 0.0
2015-Jul-21 19:31N 54°09' E 012°06'0 0.0
2015-Jul-21 18:28N 54°09' E 012°06'0 0.0
2015-Jul-21 17:28N 54°09' E 012°06'0 0.0
2015-Jul-21 16:22N 54°09' E 012°06'0 0.0
2015-Jul-21 15:28N 54°09' E 012°06'0 0.0
2015-Jul-21 14:28N 54°09' E 012°06'0 0.0
2015-Jul-21 13:28N 54°09' E 012°06'0 0.0
2015-Jul-21 12:31N 54°09' E 012°06'0 0.0
2015-Jul-21 11:33N 54°09' E 012°06'0 0.0
2015-Jul-21 10:33N 54°09' E 012°06'0 0.0
2015-Jul-21 09:32N 54°09' E 012°06'0 0.0
2015-Jul-21 08:33N 54°09' E 012°06'0 0.0
2015-Jul-21 07:33N 54°09' E 012°06'0 0.0
2015-Jul-21 06:32N 54°09' E 012°06'0 0.0
2015-Jul-21 05:33N 54°09' E 012°06'0 0.0
2015-Jul-21 04:33N 54°09' E 012°06'0 0.0
2015-Jul-21 03:31N 54°09' E 012°06'0 0.0
2015-Jul-21 02:33N 54°09' E 012°06'0 0.0
2015-Jul-21 01:33N 54°09' E 012°06'0 0.0
2015-Jul-21 00:33N 54°09' E 012°06'0 0.0
2015-Jul-20 23:28N 54°09' E 012°06'0 0.0
2015-Jul-20 22:33N 54°09' E 012°06'0 0.0
2015-Jul-20 21:32N 54°09' E 012°06'0 0.0
2015-Jul-20 20:23N 54°09' E 012°06'0 0.5
2015-Jul-20 19:33N 54°09' E 012°07'0 0.4
2015-Jul-20 18:33N 54°09' E 012°06'0 0.0
2015-Jul-20 17:33N 54°09' E 012°06'0 0.0
2015-Jul-20 16:32N 54°09' E 012°06'0 0.0
2015-Jul-20 15:33N 54°09' E 012°06'0 0.0
2015-Jul-20 14:33N 54°09' E 012°06'0 0.0
2015-Jul-20 13:32N 54°09' E 012°06'0 0.0
2015-Jul-20 12:33N 54°09' E 012°06'0 0.0
2015-Jul-20 11:33N 54°09' E 012°06'0 0.0
2015-Jul-20 10:33N 54°09' E 012°06'1 1.2
2015-Jul-20 09:32N 54°08' E 012°06'1 0.8
2015-Jul-20 08:33N 54°07' E 012°05'0 0.0
2015-Jul-20 07:33N 54°07' E 012°05'  
Track history (hours):
 
Tides and Currents Weather Stations Pressure Air Temp Water Temp Dewpoint Dewpoint Depression Visibility Wind Speed Wind Dir Waves Ship Positions

Gouwestroom

Last reported at 2015-Jul-30 07:31 UTC. Time now 2015-Jul-30 08:15 UTC.
Position N 54°09' E 012°06'.

Length 20 m; draft 2.5 m.

Type: Tug. MMSI: 246166000.

Date/timePositionNaut miles runAvg speedWind from/ knotsBaromVisibWave heightAir tempDewpointWater temp
2015-Jul-30 07:31N 54°09' E 012°06'0 0.0
2015-Jul-30 06:31N 54°09' E 012°06'0 0.0
2015-Jul-30 05:31N 54°09' E 012°06'0 0.0
2015-Jul-30 04:31N 54°09' E 012°06'0 0.0
2015-Jul-30 03:19N 54°09' E 012°06'0 0.0
2015-Jul-30 02:25N 54°09' E 012°06'0 0.0
2015-Jul-30 01:10N 54°09' E 012°06'0 0.0
2015-Jul-30 00:31N 54°09' E 012°06'0 0.0
2015-Jul-29 23:10N 54°09' E 012°06'0 0.0
2015-Jul-29 22:31N 54°09' E 012°06'0 0.0
2015-Jul-29 21:28N 54°09' E 012°06'0 0.0
2015-Jul-29 20:10N 54°09' E 012°06'0 0.0
2015-Jul-29 17:31N 54°09' E 012°06'0 0.0
2015-Jul-29 16:22N 54°09' E 012°06'0 0.0
2015-Jul-29 15:19N 54°09' E 012°06'0 0.0
2015-Jul-29 14:25N 54°09' E 012°06'0 0.0
2015-Jul-29 13:25N 54°09' E 012°06'0 0.0
2015-Jul-29 12:31N 54°09' E 012°06'0 0.0
2015-Jul-29 11:25N 54°09' E 012°06'0 0.0
2015-Jul-29 09:31N 54°09' E 012°06'0 0.0
2015-Jul-29 08:28N 54°09' E 012°06'0 0.0
2015-Jul-29 07:13N 54°09' E 012°06'0 0.0
2015-Jul-29 06:31N 54°09' E 012°06'0 0.0
2015-Jul-29 05:13N 54°09' E 012°06'0 0.0
2015-Jul-29 04:07N 54°09' E 012°06'0 0.0
2015-Jul-29 03:31N 54°09' E 012°06'0 0.0
2015-Jul-29 02:28N 54°09' E 012°06'0 0.0
2015-Jul-29 00:31N 54°09' E 012°06'0 0.0
2015-Jul-28 23:31N 54°09' E 012°06'0 0.0
2015-Jul-28 21:31N 54°09' E 012°06'0 0.0
2015-Jul-28 20:22N 54°09' E 012°06'0 0.0
2015-Jul-28 18:25N 54°09' E 012°06'0 0.0
2015-Jul-28 17:31N 54°09' E 012°06'0 0.0
2015-Jul-28 14:22N 54°09' E 012°06'0 0.0
2015-Jul-28 13:10N 54°09' E 012°06'0 0.0
2015-Jul-28 12:10N 54°09' E 012°06'0 0.0
2015-Jul-28 11:31N 54°09' E 012°06'0 0.0
2015-Jul-28 10:28N 54°09' E 012°06'0 0.0
2015-Jul-28 09:31N 54°09' E 012°06'0 0.0
2015-Jul-28 08:16N 54°09' E 012°06'0 0.0
2015-Jul-28 07:31N 54°09' E 012°06'0 0.0
2015-Jul-28 06:22N 54°09' E 012°06'0 0.0
2015-Jul-28 05:27N 54°09' E 012°07'0 0.4
2015-Jul-28 04:31N 54°10' E 012°06'3 2.8
2015-Jul-28 03:29N 54°12' E 012°06'3 3.1
2015-Jul-28 02:27N 54°15' E 012°10'0 0.0
2015-Jul-28 00:09N 54°15' E 012°10'0 0.0
2015-Jul-27 23:27N 54°15' E 012°10'0 0.0
2015-Jul-27 22:33N 54°15' E 012°10'0 0.0
2015-Jul-27 21:33N 54°15' E 012°10'0 0.0
2015-Jul-27 19:30N 54°15' E 012°10'0 0.0
2015-Jul-27 17:21N 54°15' E 012°10'0 0.0
2015-Jul-27 16:33N 54°15' E 012°10'0 0.0
2015-Jul-27 15:32N 54°15' E 012°10'0 0.0
2015-Jul-27 14:32N 54°15' E 012°10'0 0.0
2015-Jul-27 13:32N 54°15' E 012°10'0 0.0
2015-Jul-27 12:32N 54°15' E 012°10'0 0.0
2015-Jul-27 11:32N 54°15' E 012°10'0 0.0
2015-Jul-27 10:32N 54°15' E 012°10'1 0.4
2015-Jul-27 08:14N 54°15' E 012°09'2 3.1
2015-Jul-27 07:32N 54°13' E 012°07'3 2.7
2015-Jul-27 06:33N 54°10' E 012°06'1 1.4
2015-Jul-27 05:32N 54°09' E 012°07'0 0.0
2015-Jul-27 03:26N 54°09' E 012°07'0 0.0
2015-Jul-27 02:26N 54°09' E 012°07'0 0.0
2015-Jul-27 01:29N 54°09' E 012°07'0 0.0
2015-Jul-27 00:29N 54°09' E 012°07'0 0.0
2015-Jul-26 23:29N 54°09' E 012°07'0 0.0
2015-Jul-26 22:29N 54°09' E 012°07'2 2.6
2015-Jul-26 21:34N 54°11' E 012°05'2 2.2
2015-Jul-26 20:29N 54°09' E 012°06'0 0.0
2015-Jul-26 19:20N 54°09' E 012°06'0 0.0
2015-Jul-26 18:32N 54°09' E 012°07'0 0.0
2015-Jul-26 17:05N 54°09' E 012°06'0 0.0
2015-Jul-26 16:29N 54°09' E 012°06'0 0.0
2015-Jul-26 14:32N 54°09' E 012°06'0 0.0
2015-Jul-26 13:29N 54°09' E 012°06'0 0.0
2015-Jul-26 12:29N 54°09' E 012°06'0 0.0
2015-Jul-26 11:32N 54°09' E 012°06'0 0.0
2015-Jul-26 10:14N 54°09' E 012°06'0 0.0
2015-Jul-26 09:17N 54°09' E 012°06'0 0.0
2015-Jul-26 08:17N 54°09' E 012°07'0 0.0
2015-Jul-26 07:05N 54°09' E 012°06'0 0.0
2015-Jul-26 06:23N 54°09' E 012°06'0 0.0
2015-Jul-26 05:29N 54°09' E 012°06'0 0.0
2015-Jul-26 04:26N 54°09' E 012°06'0 0.0
2015-Jul-26 03:20N 54°09' E 012°06'0 0.0
2015-Jul-26 02:32N 54°09' E 012°06'0 0.0
2015-Jul-26 01:08N 54°09' E 012°06'0 0.0
2015-Jul-25 23:26N 54°09' E 012°06'0 0.0
2015-Jul-25 22:29N 54°09' E 012°06'0 0.0
2015-Jul-25 21:32N 54°09' E 012°06'0 0.0
2015-Jul-25 20:29N 54°09' E 012°06'0 0.0
2015-Jul-25 18:29N 54°09' E 012°06'0 0.0
2015-Jul-25 17:32N 54°09' E 012°06'0 0.0
2015-Jul-25 16:05N 54°09' E 012°06'0 0.0
2015-Jul-25 15:29N 54°09' E 012°06'0 0.0
2015-Jul-25 14:32N 54°09' E 012°06'0 0.0
2015-Jul-25 13:20N 54°09' E 012°06'0 0.0
2015-Jul-25 12:23N 54°09' E 012°06'0 0.0
2015-Jul-25 11:32N 54°09' E 012°06'0 0.0
2015-Jul-25 10:26N 54°09' E 012°06'0 0.0
2015-Jul-25 08:32N 54°09' E 012°06'0 0.0
2015-Jul-25 07:26N 54°09' E 012°06'0 0.0
2015-Jul-25 06:32N 54°09' E 012°07'0 0.0
2015-Jul-25 04:17N 54°09' E 012°06'0 0.0
2015-Jul-25 01:08N 54°09' E 012°07'0 0.0
2015-Jul-25 00:08N 54°09' E 012°06'0 0.0
2015-Jul-24 23:32N 54°09' E 012°06'0 0.0
2015-Jul-24 22:14N 54°09' E 012°07'0 0.0
2015-Jul-24 21:32N 54°09' E 012°06'0 0.0
2015-Jul-24 20:32N 54°09' E 012°07'3 2.6
2015-Jul-24 19:34N 54°12' E 012°05'2 1.7
2015-Jul-24 18:32N 54°12' E 012°08'0 0.0
2015-Jul-24 17:32N 54°12' E 012°08'0 0.0
2015-Jul-24 16:30N 54°12' E 012°08'0 0.0
2015-Jul-24 15:33N 54°12' E 012°08'0 0.0
2015-Jul-24 14:33N 54°12' E 012°08'0 0.1
2015-Jul-24 13:27N 54°13' E 012°08'0 0.0
2015-Jul-24 12:33N 54°13' E 012°08'0 0.0
2015-Jul-24 11:27N 54°12' E 012°08'0 0.0
2015-Jul-24 10:27N 54°12' E 012°08'0 0.0
2015-Jul-24 09:15N 54°12' E 012°08'0 0.0
2015-Jul-24 08:27N 54°12' E 012°08'0 0.0
2015-Jul-24 07:33N 54°12' E 012°08'0 0.0
2015-Jul-24 06:33N 54°12' E 012°08'0 0.0
2015-Jul-24 05:21N 54°12' E 012°08'0 0.0
2015-Jul-24 04:14N 54°12' E 012°08'0 0.0
2015-Jul-24 03:17N 54°12' E 012°08'0 0.2
2015-Jul-24 01:32N 54°13' E 012°08'2 2.4
2015-Jul-24 00:33N 54°11' E 012°06'2 1.9
2015-Jul-23 23:32N 54°09' E 012°07'0 0.1
2015-Jul-23 22:32N 54°09' E 012°06'0 0.0
2015-Jul-23 20:32N 54°09' E 012°06'0 0.0
2015-Jul-23 19:29N 54°09' E 012°07'1 1.0
2015-Jul-23 18:33N 54°10' E 012°06'1 0.8
2015-Jul-23 17:25N 54°09' E 012°06'0 0.0
2015-Jul-23 16:28N 54°09' E 012°07'0 0.0
2015-Jul-23 15:31N 54°09' E 012°06'0 0.0
2015-Jul-23 14:18N 54°09' E 012°07'0 0.0
2015-Jul-23 13:30N 54°09' E 012°07'0 0.0
2015-Jul-23 12:24N 54°09' E 012°06'0 0.0
2015-Jul-23 11:30N 54°09' E 012°06'0 0.0
2015-Jul-23 10:33N 54°09' E 012°06'0 0.0
2015-Jul-23 09:27N 54°09' E 012°06'0 0.0
2015-Jul-23 08:18N 54°09' E 012°07'0 0.0
2015-Jul-23 07:15N 54°09' E 012°06'0 0.0
2015-Jul-23 06:30N 54°09' E 012°06'0 0.0
2015-Jul-23 05:24N 54°09' E 012°06'0 0.0
2015-Jul-23 04:33N 54°09' E 012°06'0 0.0
2015-Jul-23 03:12N 54°09' E 012°06'0 0.0
2015-Jul-23 02:15N 54°09' E 012°07'0 0.0
2015-Jul-23 01:33N 54°09' E 012°06'0 0.0
2015-Jul-23 00:32N 54°09' E 012°07'2 2.1
2015-Jul-22 23:32N 54°11' E 012°05'2 2.1
2015-Jul-22 22:29N 54°13' E 012°08'0 0.0
2015-Jul-22 20:32N 54°13' E 012°08'0 0.0
2015-Jul-22 19:29N 54°13' E 012°08'0 0.0
2015-Jul-22 18:29N 54°13' E 012°08'0 0.0
2015-Jul-22 17:29N 54°13' E 012°08'0 0.0
2015-Jul-22 16:25N 54°13' E 012°08'0 0.0
2015-Jul-22 15:22N 54°13' E 012°08'0 0.0
2015-Jul-22 14:28N 54°13' E 012°08'0 0.0
2015-Jul-22 13:10N 54°13' E 012°08'0 0.0
2015-Jul-22 12:28N 54°13' E 012°08'0 0.0
2015-Jul-22 11:25N 54°13' E 012°08'0 0.0
2015-Jul-22 10:31N 54°13' E 012°08'0 0.1
2015-Jul-22 09:31N 54°13' E 012°08'2 2.0
2015-Jul-22 08:27N 54°15' E 012°10'0 0.0
2015-Jul-22 06:33N 54°15' E 012°10'0 0.0
2015-Jul-22 05:33N 54°15' E 012°10'0 0.0
2015-Jul-22 04:31N 54°15' E 012°10'0 0.0
2015-Jul-22 03:28N 54°15' E 012°10'0 0.0
2015-Jul-22 02:28N 54°15' E 012°10'0 0.2
2015-Jul-22 01:30N 54°14' E 012°10'3 2.6
2015-Jul-22 00:31N 54°12' E 012°08'3 2.7
2015-Jul-21 23:33N 54°10' E 012°06'0 0.4
2015-Jul-21 22:25N 54°09' E 012°06'0 0.0
2015-Jul-21 21:28N 54°09' E 012°06'0 0.0
2015-Jul-21 20:31N 54°09' E 012°06'0 0.0
2015-Jul-21 19:31N 54°09' E 012°06'0 0.0
2015-Jul-21 18:28N 54°09' E 012°06'0 0.0
2015-Jul-21 17:28N 54°09' E 012°06'0 0.0
2015-Jul-21 16:22N 54°09' E 012°06'0 0.0
2015-Jul-21 15:28N 54°09' E 012°06'0 0.0
2015-Jul-21 14:28N 54°09' E 012°06'0 0.0
2015-Jul-21 13:28N 54°09' E 012°06'0 0.0
2015-Jul-21 12:31N 54°09' E 012°06'0 0.0
2015-Jul-21 11:33N 54°09' E 012°06'0 0.0
2015-Jul-21 10:33N 54°09' E 012°06'0 0.0
2015-Jul-21 09:32N 54°09' E 012°06'0 0.0
2015-Jul-21 08:33N 54°09' E 012°06'0 0.0
2015-Jul-21 07:33N 54°09' E 012°06'0 0.0
2015-Jul-21 06:32N 54°09' E 012°06'0 0.0
2015-Jul-21 05:33N 54°09' E 012°06'0 0.0
2015-Jul-21 04:33N 54°09' E 012°06'0 0.0
2015-Jul-21 03:31N 54°09' E 012°06'0 0.0
2015-Jul-21 02:33N 54°09' E 012°06'0 0.0
2015-Jul-21 01:33N 54°09' E 012°06'0 0.0
2015-Jul-21 00:33N 54°09' E 012°06'0 0.0
2015-Jul-20 23:28N 54°09' E 012°06'0 0.0
2015-Jul-20 22:33N 54°09' E 012°06'0 0.0
2015-Jul-20 21:32N 54°09' E 012°06'0 0.0
2015-Jul-20 20:23N 54°09' E 012°06'0 0.5
2015-Jul-20 19:33N 54°09' E 012°07'0 0.4
2015-Jul-20 18:33N 54°09' E 012°06'0 0.0
2015-Jul-20 17:33N 54°09' E 012°06'0 0.0
2015-Jul-20 16:32N 54°09' E 012°06'0 0.0
2015-Jul-20 15:33N 54°09' E 012°06'0 0.0
2015-Jul-20 14:33N 54°09' E 012°06'0 0.0
2015-Jul-20 13:32N 54°09' E 012°06'0 0.0
2015-Jul-20 12:33N 54°09' E 012°06'0 0.0
2015-Jul-20 11:33N 54°09' E 012°06'0 0.0
2015-Jul-20 10:33N 54°09' E 012°06'1 1.2
2015-Jul-20 09:32N 54°08' E 012°06'1 0.8
2015-Jul-20 08:33N 54°07' E 012°05'0 0.0
2015-Jul-20 07:33N 54°07' E 012°05'  

Dump ship's entire track history